Time;durP1;ratioP1;P1;durP2;ratioP2;P2;SDS_P1;SDS_P2;PMS_P1;PMS_P2;Temp;Humidity;BMP_temperature;BMP_pressure;BME280_temperature;BME280_humidity;BME280_pressure;Samples;Min_cycle;Max_cycle;Signal;HPM_P1;HPM_P2
2024/04/10 00:00:31;;;;;;;73.00;69.50;;;;;;;-143.39;100.00;64013.03;5381323;26;20001;-81
2024/04/10 00:03:05;;;;;;;75.10;71.50;;;;;;;-143.39;100.00;64013.03;5383401;26;20004;-81
2024/04/10 00:05:31;;;;;;;74.55;70.85;;;;;;;-143.39;100.00;64013.03;5381250;26;20053;-81
2024/04/10 00:08:02;;;;;;;68.97;65.72;;;;;;;-143.39;100.00;64013.03;5383034;26;20628;-81
2024/04/10 00:10:29;;;;;;;77.22;73.70;;;;;;;-143.39;100.00;64013.03;5381409;26;20034;-81
2024/04/10 00:12:58;;;;;;;71.45;68.15;;;;;;;-143.39;100.00;64013.03;5383340;26;20028;-80
2024/04/10 00:15:24;;;;;;;68.28;65.15;;;;;;;-143.39;100.00;64013.03;5380585;26;20004;-75
2024/04/10 00:17:53;;;;;;;57.55;54.75;;;;;;;-143.39;100.00;64013.03;5382563;26;20015;-75
2024/04/10 00:20:21;;;;;;;63.08;59.97;;;;;;;-143.39;100.00;64013.03;5380239;26;20076;-74
2024/04/10 00:22:50;;;;;;;72.40;69.05;;;;;;;-143.39;100.00;64013.03;5382065;26;20035;-74
2024/04/10 00:25:17;;;;;;;75.90;72.30;;;;;;;-143.39;100.00;64013.03;5379889;26;20230;-75
2024/04/10 00:27:46;;;;;;;67.55;64.35;;;;;;;-143.39;100.00;64013.03;5382851;26;21039;-74
2024/04/10 00:30:12;;;;;;;78.55;74.80;;;;;;;-143.39;100.00;64013.03;5379964;26;20765;-74
2024/04/10 00:32:41;;;;;;;71.00;67.63;;;;;;;-143.39;100.00;64013.03;5382261;26;20024;-75
2024/04/10 00:35:07;;;;;;;27.02;25.92;;;;;;;-143.39;100.00;64013.03;5380347;26;20046;-75
2024/04/10 00:37:41;;;;;;;26.88;25.67;;;;;;;-143.39;100.00;64013.03;5382120;26;20008;-74
2024/04/10 00:40:08;;;;;;;29.30;26.45;;;;;;;-143.39;100.00;64013.03;5379635;26;20000;-74
2024/04/10 00:42:37;;;;;;;26.67;25.48;;;;;;;-143.39;100.00;64013.03;5382634;26;20015;-75
2024/04/10 00:45:04;;;;;;;26.67;25.48;;;;;;;-143.39;100.00;64013.03;5380260;26;20000;-75
2024/04/10 00:47:34;;;;;;;29.13;27.80;;;;;;;-143.39;100.00;64013.03;5382749;26;20091;-74
2024/04/10 00:50:00;;;;;;;27.20;25.90;;;;;;;-143.39;100.00;64013.03;5380391;26;20004;-74
2024/04/10 00:52:29;;;;;;;27.92;26.63;;;;;;;-143.39;100.00;64013.03;5375722;26;20958;-80
2024/04/10 00:55:05;;;;;;;29.38;28.08;;;;;;;-143.39;100.00;64013.03;5380332;26;20000;-80
2024/04/10 00:57:34;;;;;;;29.10;27.80;;;;;;;-143.39;100.00;64013.03;5381149;26;20005;-80
2024/04/10 01:00:00;;;;;;;27.52;26.23;;;;;;;-143.39;100.00;64013.03;5380254;26;20574;-81
2024/04/10 01:02:29;;;;;;;27.85;26.65;;;;;;;-143.39;100.00;64013.03;5382827;26;20000;-80
2024/04/10 01:04:55;;;;;;;28.27;26.98;;;;;;;-143.39;100.00;64013.03;5379664;26;20366;-81
2024/04/10 01:07:24;;;;;;;26.80;25.33;;;;;;;-143.39;100.00;64013.03;5381871;26;20008;-81
2024/04/10 01:09:50;;;;;;;27.30;26.00;;;;;;;-143.39;100.00;64013.03;5379090;26;20039;-80
2024/04/10 01:12:22;;;;;;;25.60;24.40;;;;;;;-143.39;100.00;64013.03;5382332;26;20054;-74
2024/04/10 01:14:48;;;;;;;29.45;28.08;;;;;;;-143.39;100.00;64013.03;5379774;26;20355;-74
2024/04/10 01:17:16;;;;;;;28.27;26.98;;;;;;;-143.39;100.00;64013.03;5382341;26;20019;-75
2024/04/10 01:19:44;;;;;;;28.70;27.33;;;;;;;-143.39;100.00;64013.03;5379509;26;20004;-74
2024/04/10 01:22:12;;;;;;;29.08;27.77;;;;;;;-143.39;100.00;64013.03;5381738;26;20004;-75
2024/04/10 01:24:41;;;;;;;27.55;26.35;;;;;;;-143.39;100.00;64013.03;5382637;26;20077;-75
2024/04/10 01:27:10;;;;;;;27.95;26.75;;;;;;;-143.39;100.00;64013.03;5388528;26;20000;-74
2024/04/10 01:29:36;;;;;;;27.10;25.80;;;;;;;-143.39;100.00;64013.03;5380173;26;20044;-74
2024/04/10 01:32:05;;;;;;;28.27;26.98;;;;;;;-143.39;100.00;64013.03;5382251;26;20008;-74
2024/04/10 01:34:31;;;;;;;28.65;27.35;;;;;;;-143.39;100.00;64013.03;5379649;26;20855;-74
2024/04/10 01:37:00;;;;;;;27.30;26.00;;;;;;;-143.39;100.00;64013.03;5381648;26;20036;-74
2024/04/10 01:39:27;;;;;;;29.98;28.67;;;;;;;-143.39;100.00;64013.03;5378817;26;20000;-74
2024/04/10 01:42:00;;;;;;;30.30;28.70;;;;;;;-143.39;100.00;64013.03;5381692;26;20000;-74
2024/04/10 01:44:26;;;;;;;27.30;26.08;;;;;;;-143.39;100.00;64013.03;5379879;26;20457;-74
2024/04/10 01:46:55;;;;;;;26.67;25.48;;;;;;;-143.39;100.00;64013.03;5382318;26;20015;-74
2024/04/10 01:49:21;;;;;;;25.73;24.30;;;;;;;-143.39;100.00;64013.03;5379105;26;20048;-75
2024/04/10 01:51:50;;;;;;;26.13;24.92;;;;;;;-143.39;100.00;64013.03;5378276;26;20015;-75
2024/04/10 01:54:17;;;;;;;26.27;25.08;;;;;;;-143.39;100.00;64013.03;5378086;26;20008;-75
2024/04/10 01:56:45;;;;;;;26.88;24.73;;;;;;;-143.39;100.00;64013.03;5381194;26;20448;-74
2024/04/10 01:59:14;;;;;;;27.77;26.48;;;;;;;-143.39;100.00;64013.03;5379267;26;20808;-74
2024/04/10 02:01:43;;;;;;;28.30;27.10;;;;;;;-143.39;100.00;64013.03;5381471;26;19996;-75
2024/04/10 02:04:09;;;;;;;23.67;22.70;;;;;;;-143.39;100.00;64013.03;5379002;26;20015;-75
2024/04/10 02:06:38;;;;;;;24.60;23.58;;;;;;;-143.39;100.00;64013.03;5381884;26;20001;-80
2024/04/10 02:09:04;;;;;;;27.35;26.13;;;;;;;-143.39;100.00;64013.03;5377924;26;20015;-80
2024/04/10 02:11:38;;;;;;;25.15;24.15;;;;;;;-143.39;100.00;64013.03;5382082;26;20011;-80
2024/04/10 02:14:04;;;;;;;25.50;24.50;;;;;;;-143.39;100.00;64013.03;5379331;26;20000;-80
2024/04/10 02:16:36;;;;;;;28.80;27.50;;;;;;;-143.39;100.00;64013.03;5381792;26;20000;-81
2024/04/10 02:19:02;;;;;;;27.25;26.05;;;;;;;-143.39;100.00;64013.03;5379078;26;20000;-80
2024/04/10 02:21:32;;;;;;;23.15;22.15;;;;;;;-143.39;100.00;64013.03;5380607;26;20011;-80
2024/04/10 02:23:58;;;;;;;30.40;29.20;;;;;;;-143.39;100.00;64013.03;5378686;26;20004;-80
2024/04/10 02:26:27;;;;;;;30.50;29.20;;;;;;;-143.39;100.00;64013.03;5381342;26;20000;-80
2024/04/10 02:28:53;;;;;;;29.80;28.60;;;;;;;-143.39;100.00;64013.03;5378901;26;20000;-80
2024/04/10 02:31:22;;;;;;;27.40;26.25;;;;;;;-143.39;100.00;64013.03;5380882;26;20012;-80
2024/04/10 02:33:50;;;;;;;32.70;31.10;;;;;;;-143.39;100.00;64013.03;5379102;26;20028;-80
2024/04/10 02:36:19;;;;;;;39.33;37.33;;;;;;;-143.39;100.00;64013.03;5380735;26;19996;-80
2024/04/10 02:38:46;;;;;;;37.83;35.72;;;;;;;-143.39;100.00;64013.03;5377982;26;20099;-80
2024/04/10 02:41:15;;;;;;;39.35;37.45;;;;;;;-143.39;100.00;64013.03;5380496;26;20004;-80
2024/04/10 02:43:42;;;;;;;36.03;34.22;;;;;;;-143.39;100.00;64013.03;5378022;26;20004;-81
2024/04/10 02:46:15;;;;;;;35.33;33.53;;;;;;;-143.39;100.00;64013.03;5380895;26;20000;-80
2024/04/10 02:48:41;;;;;;;36.10;34.20;;;;;;;-143.39;100.00;64013.03;5378964;26;20004;-75
2024/04/10 02:51:13;;;;;;;35.00;33.17;;;;;;;-143.39;100.00;64013.03;5380791;26;20011;-75
2024/04/10 02:53:40;;;;;;;34.70;32.90;;;;;;;-143.39;100.00;64013.03;5371396;26;20054;-74
2024/04/10 02:56:09;;;;;;;35.20;33.55;;;;;;;-143.39;100.00;64013.03;5381003;26;20245;-80
2024/04/10 02:58:35;;;;;;;34.00;32.40;;;;;;;-143.39;100.00;64013.03;5378559;26;20014;-80
2024/04/10 03:01:04;;;;;;;35.45;33.53;;;;;;;-143.39;100.00;64013.03;5380324;26;20004;-80
2024/04/10 03:03:31;;;;;;;37.40;35.60;;;;;;;-143.39;100.00;64013.03;5378002;26;20073;-80
2024/04/10 03:06:03;;;;;;;34.50;32.90;;;;;;;-143.39;100.00;64013.03;5380377;26;20040;-80
2024/04/10 03:08:33;;;;;;;31.30;29.80;;;;;;;-143.39;100.00;64013.03;5377722;26;20073;-80
2024/04/10 03:11:04;;;;;;;31.20;29.70;;;;;;;-143.39;100.00;64013.03;5380373;26;20412;-80
2024/04/10 03:13:31;;;;;;;32.92;31.30;;;;;;;-143.39;100.00;64013.03;5377652;26;20000;-75
2024/04/10 03:16:00;;;;;;;30.90;28.85;;;;;;;-143.39;100.00;64013.03;5379787;26;20000;-75
2024/04/10 03:18:26;;;;;;;29.08;27.77;;;;;;;-143.39;100.00;64013.03;5378509;26;20018;-74
2024/04/10 03:20:57;;;;;;;28.30;27.00;;;;;;;-143.39;100.00;64013.03;5382080;26;20052;-74
2024/04/10 03:23:24;;;;;;;28.98;27.48;;;;;;;-143.39;100.00;64013.03;5381797;26;20414;-74
2024/04/10 03:26:05;;;;;;;25.35;24.15;;;;;;;-143.39;100.00;64013.03;5383450;26;20000;-74
2024/04/10 03:28:33;;;;;;;39.20;37.28;;;;;;;-143.39;100.00;64013.03;5381610;26;20012;-74
2024/04/10 03:31:02;;;;;;;34.05;32.45;;;;;;;-143.39;100.00;64013.03;5383044;26;20005;-75
2024/04/10 03:33:28;;;;;;;32.45;30.95;;;;;;;-143.39;100.00;64013.03;5380829;26;20013;-74
2024/04/10 03:35:57;;;;;;;30.25;28.85;;;;;;;-143.39;100.00;64013.03;5383413;26;19996;-74
2024/04/10 03:38:24;;;;;;;23.63;22.45;;;;;;;-143.39;100.00;64013.03;5380754;26;20019;-74
2024/04/10 03:40:53;;;;;;;26.65;25.35;;;;;;;-143.39;100.00;64013.03;5383023;26;20077;-74
2024/04/10 03:43:24;;;;;;;25.15;23.85;;;;;;;-143.39;100.00;64013.03;5380529;26;20012;-74
2024/04/10 03:45:54;;;;;;;24.47;23.07;;;;;;;-143.39;100.00;64013.03;5381354;26;20452;-74
2024/04/10 03:48:22;;;;;;;30.05;28.55;;;;;;;-143.39;100.00;64013.03;5381118;26;20458;-80
2024/04/10 03:50:51;;;;;;;20.65;19.65;;;;;;;-143.39;100.00;64013.03;5380364;26;20438;-80
2024/04/10 03:53:20;;;;;;;20.92;19.92;;;;;;;-143.39;100.00;64013.03;5373252;26;20015;-80
2024/04/10 03:55:46;;;;;;;22.05;20.95;;;;;;;-143.39;100.00;64013.03;5381165;26;20000;-80
2024/04/10 03:58:17;;;;;;;21.25;20.05;;;;;;;-143.39;100.00;64013.03;5384414;26;20000;-80
2024/04/10 04:00:49;;;;;;;20.90;19.80;;;;;;;-143.39;100.00;64013.03;5381597;26;20014;-80
2024/04/10 04:03:18;;;;;;;20.73;19.63;;;;;;;-143.39;100.00;64013.03;5384216;26;20000;-80
2024/04/10 04:05:45;;;;;;;20.10;19.00;;;;;;;-143.39;100.00;64013.03;5382026;26;20015;-80
2024/04/10 04:08:14;;;;;;;19.88;18.88;;;;;;;-143.39;100.00;64013.03;5383764;26;20000;-80
2024/04/10 04:10:43;;;;;;;20.70;19.70;;;;;;;-143.39;100.00;64013.03;5380687;26;20000;-80
2024/04/10 04:13:12;;;;;;;21.90;20.90;;;;;;;-143.39;100.00;64013.03;5382228;26;20081;-80
2024/04/10 04:15:40;;;;;;;21.10;20.10;;;;;;;-143.39;100.00;64013.03;5381664;26;20011;-80
2024/04/10 04:18:14;;;;;;;20.23;19.23;;;;;;;-143.39;100.00;64013.03;5382500;26;20456;-80
2024/04/10 04:20:41;;;;;;;20.90;19.80;;;;;;;-143.39;100.00;64013.03;5380700;26;20078;-80
2024/04/10 04:23:10;;;;;;;21.63;20.52;;;;;;;-143.39;100.00;64013.03;5383210;26;21422;-80
2024/04/10 04:25:36;;;;;;;21.10;20.10;;;;;;;-143.39;100.00;64013.03;5379684;26;20076;-74
2024/04/10 04:28:06;;;;;;;21.67;20.58;;;;;;;-143.39;100.00;64013.03;5382410;26;20012;-74
2024/04/10 04:30:33;;;;;;;20.40;19.40;;;;;;;-143.39;100.00;64013.03;5380155;26;20004;-74
2024/04/10 04:33:01;;;;;;;20.88;19.95;;;;;;;-143.39;100.00;64013.03;5381560;26;20016;-74
2024/04/10 04:35:30;;;;;;;21.00;20.00;;;;;;;-143.39;100.00;64013.03;5380380;26;20000;-74
2024/04/10 04:38:00;;;;;;;22.13;21.02;;;;;;;-143.39;100.00;64013.03;5381835;26;20356;-74
2024/04/10 04:40:30;;;;;;;22.08;21.05;;;;;;;-143.39;100.00;64013.03;5377550;26;20008;-75
2024/04/10 04:43:02;;;;;;;22.83;21.73;;;;;;;-143.39;100.00;64013.03;5382306;26;20001;-75
2024/04/10 04:45:28;;;;;;;22.83;21.73;;;;;;;-143.39;100.00;64013.03;5379069;26;20004;-74
2024/04/10 04:47:57;;;;;;;22.75;21.65;;;;;;;-143.39;100.00;64013.03;5382285;26;20238;-75
2024/04/10 04:50:23;;;;;;;22.00;20.90;;;;;;;-143.39;100.00;64013.03;5379996;26;20363;-74
2024/04/10 04:52:55;;;;;;;24.77;23.48;;;;;;;-143.39;100.00;64013.03;5372046;26;20005;-77
2024/04/10 04:55:21;;;;;;;23.77;22.58;;;;;;;-143.39;100.00;64013.03;5379498;26;20012;-76
2024/04/10 04:57:50;;;;;;;24.95;23.70;;;;;;;-143.39;100.00;64013.03;5379481;26;20454;-82
2024/04/10 05:00:19;;;;;;;21.98;20.95;;;;;;;-143.39;100.00;64013.03;5363105;26;20414;-82
2024/04/10 05:02:48;;;;;;;25.80;24.60;;;;;;;-143.39;100.00;64013.03;5381501;26;20029;-82
2024/04/10 05:05:18;;;;;;;22.98;21.98;;;;;;;-143.39;100.00;64013.03;5378491;26;20081;-83
2024/04/10 05:07:48;;;;;;;21.63;20.73;;;;;;;-143.39;100.00;64013.03;5381464;26;20004;-82
2024/04/10 05:10:20;;;;;;;21.90;20.90;;;;;;;-143.39;100.00;64013.03;5378052;26;20019;-82
2024/04/10 05:12:46;;;;;;;;;;;;;;;-143.39;100.00;64013.03;5378939;26;20008;-75
2024/04/10 05:15:17;;;;;;;22.23;21.23;;;;;;;-143.39;100.00;64013.03;5381001;26;19995;-75
2024/04/10 05:17:44;;;;;;;22.17;21.17;;;;;;;-143.39;100.00;64013.03;5378507;26;20000;-82
2024/04/10 05:20:14;;;;;;;21.40;20.40;;;;;;;-143.39;100.00;64013.03;5381074;26;20750;-75
2024/04/10 05:22:42;;;;;;;20.92;20.02;;;;;;;-143.39;100.00;64013.03;5378563;26;19996;-83
2024/04/10 05:25:13;;;;;;;21.17;20.08;;;;;;;-143.39;100.00;64013.03;5376527;26;20004;-82
2024/04/10 05:27:46;;;;;;;22.13;21.13;;;;;;;-143.39;100.00;64013.03;5378708;26;20047;-82
2024/04/10 05:30:16;;;;;;;23.08;21.92;;;;;;;-143.39;100.00;64013.03;5381680;26;20004;-83
2024/04/10 05:32:43;;;;;;;23.63;22.52;;;;;;;-143.39;100.00;64013.03;5379728;26;20015;-82
2024/04/10 05:35:14;;;;;;;23.17;22.08;;;;;;;-143.39;100.00;64013.03;5381750;26;20035;-82
2024/04/10 05:37:40;;;;;;;23.67;22.48;;;;;;;-143.39;100.00;64013.03;5345120;26;20001;-83
2024/04/10 05:40:13;;;;;;;22.85;21.75;;;;;;;-143.39;100.00;64013.03;5347600;26;20001;-83
2024/04/10 05:42:40;;;;;;;22.88;21.77;;;;;;;-143.39;100.00;64013.03;5377469;26;20078;-83
2024/04/10 05:45:13;;;;;;;22.60;21.50;;;;;;;-143.39;100.00;64013.03;5382594;26;19996;-82
2024/04/10 05:47:40;;;;;;;25.73;24.33;;;;;;;-143.39;100.00;64013.03;5379669;26;20005;-83
2024/04/10 05:50:11;;;;;;;24.45;23.25;;;;;;;-143.39;100.00;64013.03;5382222;26;20332;-83
2024/04/10 05:52:43;;;;;;;22.38;21.27;;;;;;;-143.39;100.00;64013.03;5379688;26;20004;-82
2024/04/10 05:55:13;;;;;;;23.23;21.92;;;;;;;-143.39;100.00;64013.03;5374451;26;20036;-83
2024/04/10 05:57:39;;;;;;;24.10;22.90;;;;;;;-143.39;100.00;64013.03;5379950;26;20015;-82
2024/04/10 06:00:12;;;;;;;29.02;27.52;;;;;;;-143.39;100.00;64013.03;5381960;26;20027;-83
2024/04/10 06:02:38;;;;;;;23.30;22.20;;;;;;;-143.39;100.00;64013.03;5379967;26;20000;-83
2024/04/10 06:05:09;;;;;;;22.00;20.80;;;;;;;-143.39;100.00;64013.03;5381624;26;20035;-82
2024/04/10 06:07:36;;;;;;;20.73;19.63;;;;;;;-143.39;100.00;64013.03;5378981;26;20019;-83
2024/04/10 06:10:05;;;;;;;23.77;22.48;;;;;;;-143.39;100.00;64013.03;5381525;26;20444;-75
2024/04/10 06:12:31;;;;;;;22.67;21.48;;;;;;;-143.39;100.00;64013.03;5379076;26;20394;-75
2024/04/10 06:15:00;;;;;;;22.25;21.05;;;;;;;-143.39;100.00;64013.03;5381709;26;20004;-75
2024/04/10 06:17:28;;;;;;;22.13;20.98;;;;;;;-143.39;100.00;64013.03;5378839;26;20085;-75
2024/04/10 06:19:57;;;;;;;19.58;18.42;;;;;;;-143.39;100.00;64013.03;5381865;26;20448;-75
2024/04/10 06:22:24;;;;;;;26.83;24.98;;;;;;;-143.39;100.00;64013.03;5378766;26;20016;-75
2024/04/10 06:24:54;;;;;;;23.60;22.00;;;;;;;-143.39;100.00;64013.03;5380838;26;20005;-75
2024/04/10 06:27:20;;;;;;;23.45;21.77;;;;;;;-143.39;100.00;64013.03;5379030;26;20015;-75
2024/04/10 06:29:49;;;;;;;21.23;20.05;;;;;;;-143.39;100.00;64013.03;5381892;26;20839;-75
2024/04/10 06:32:18;;;;;;;27.10;25.08;;;;;;;-143.39;100.00;64013.03;5379028;26;20004;-75
2024/04/10 06:34:50;;;;;;;32.00;29.83;;;;;;;-143.39;100.00;64013.03;5380421;26;20036;-76
2024/04/10 06:37:16;;;;;;;28.07;26.33;;;;;;;-143.39;100.00;64013.03;5379010;26;20019;-75
2024/04/10 06:39:46;;;;;;;26.42;24.92;;;;;;;-143.39;100.00;64013.03;5382168;26;20004;-76
2024/04/10 06:42:13;;;;;;;26.58;24.98;;;;;;;-143.39;100.00;64013.03;5379129;26;20001;-83
2024/04/10 06:44:42;;;;;;;26.05;24.15;;;;;;;-143.39;100.00;64013.03;5381479;26;20022;-83
2024/04/10 06:47:09;;;;;;;25.23;23.65;;;;;;;-143.39;100.00;64013.03;5378316;26;20010;-83
2024/04/10 06:49:38;;;;;;;27.38;25.73;;;;;;;-143.39;100.00;64013.03;5381153;26;20004;-75
2024/04/10 06:52:07;;;;;;;27.42;25.73;;;;;;;-143.39;100.00;64013.03;5377880;26;20023;-75
2024/04/10 06:54:38;;;;;;;28.25;26.63;;;;;;;-143.39;100.00;64013.03;5372203;26;20016;-75
2024/04/10 06:57:05;;;;;;;24.17;22.77;;;;;;;-143.39;100.00;64013.03;5377627;26;19997;-75
2024/04/10 06:59:34;;;;;;;24.17;22.77;;;;;;;-143.39;100.00;64013.03;5380911;26;20098;-82
2024/04/10 07:02:00;;;;;;;25.05;23.60;;;;;;;-143.39;100.00;64013.03;5377652;26;20004;-83
2024/04/10 07:04:30;;;;;;;25.58;24.08;;;;;;;-143.39;100.00;64013.03;5380368;26;20018;-75
2024/04/10 07:07:02;;;;;;;24.33;22.83;;;;;;;-143.39;100.00;64013.03;5377694;26;20094;-76
2024/04/10 07:09:34;;;;;;;25.60;24.10;;;;;;;-143.39;100.00;64013.03;5380539;26;20052;-75
2024/04/10 07:12:00;;;;;;;26.15;24.63;;;;;;;-143.39;100.00;64013.03;5376749;26;20582;-75
2024/04/10 07:14:34;;;;;;;26.40;24.70;;;;;;;-143.39;100.00;64013.03;5379698;26;20011;-75
2024/04/10 07:17:00;;;;;;;25.38;23.77;;;;;;;-143.39;100.00;64013.03;5377706;26;20721;-76
2024/04/10 07:19:34;;;;;;;26.17;24.48;;;;;;;-143.39;100.00;64013.03;5380199;26;20016;-75
2024/04/10 07:22:02;;;;;;;26.50;24.90;;;;;;;-143.39;100.00;64013.03;5342657;26;20057;-75
2024/04/10 07:24:34;;;;;;;28.95;27.25;;;;;;;-143.39;100.00;64013.03;5344897;26;20012;-76
2024/04/10 07:27:00;;;;;;;27.25;25.45;;;;;;;-143.39;100.00;64013.03;5374941;26;20077;-75
2024/04/10 07:29:30;;;;;;;28.67;26.88;;;;;;;-143.39;100.00;64013.03;5380515;26;20024;-76
2024/04/10 07:31:56;;;;;;;27.45;25.55;;;;;;;-143.39;100.00;64013.03;5379257;26;20000;-83
2024/04/10 07:34:25;;;;;;;28.58;26.67;;;;;;;-143.39;100.00;64013.03;5380434;26;20863;-82
2024/04/10 07:36:51;;;;;;;30.30;28.30;;;;;;;-143.39;100.00;64013.03;5377192;26;20497;-75
2024/04/10 07:39:20;;;;;;;33.60;31.40;;;;;;;-143.39;100.00;64013.03;5379674;26;20000;-76
2024/04/10 07:41:49;;;;;;;31.95;29.85;;;;;;;-143.39;100.00;64013.03;5377212;26;20001;-75
2024/04/10 07:44:20;;;;;;;31.77;29.67;;;;;;;-143.39;100.00;64013.03;5380015;26;20464;-76
2024/04/10 07:46:49;;;;;;;32.47;30.27;;;;;;;-143.39;100.00;64013.03;5377911;26;20015;-83
2024/04/10 07:49:18;;;;;;;31.52;29.13;;;;;;;-143.39;100.00;64013.03;5380148;26;20351;-83
2024/04/10 07:51:50;;;;;;;29.85;27.75;;;;;;;-143.39;100.00;64013.03;5378111;26;20000;-83
2024/04/10 07:54:19;;;;;;;31.38;29.35;;;;;;;-143.39;100.00;64013.03;5373251;26;20000;-82
2024/04/10 07:56:49;;;;;;;34.17;31.50;;;;;;;-143.39;100.00;64013.03;5376371;26;20815;-82
2024/04/10 07:59:18;;;;;;;31.58;29.48;;;;;;;-143.39;100.00;64013.03;5379645;26;20001;-82
2024/04/10 08:01:44;;;;;;;32.10;29.90;;;;;;;-143.39;100.00;64013.03;5377479;26;20095;-83
2024/04/10 08:04:13;;;;;;;30.48;28.27;;;;;;;-143.39;100.00;64013.03;5379862;26;20490;-83
2024/04/10 08:06:40;;;;;;;49.50;46.58;;;;;;;-143.39;100.00;64013.03;5379048;26;20069;-83
2024/04/10 08:09:09;;;;;;;38.80;36.20;;;;;;;-143.39;100.00;64013.03;5382652;26;20012;-83
2024/04/10 08:11:37;;;;;;;61.13;57.70;;;;;;;-143.39;100.00;64013.03;5381100;26;20004;-83
2024/04/10 08:14:09;;;;;;;37.22;34.83;;;;;;;-143.39;100.00;64013.03;5383560;26;20013;-83
2024/04/10 08:16:35;;;;;;;37.80;35.40;;;;;;;-143.39;100.00;64013.03;5380737;26;20015;-76
2024/04/10 08:19:06;;;;;;;73.22;69.35;;;;;;;-143.39;100.00;64013.03;5382401;26;20000;-76
2024/04/10 08:21:36;;;;;;;34.70;32.40;;;;;;;-143.39;100.00;64013.03;5380385;26;20455;-76
2024/04/10 08:24:05;;;;;;;59.17;55.85;;;;;;;-143.39;100.00;64013.03;5382393;26;20000;-76
2024/04/10 08:26:33;;;;;;;33.58;31.17;;;;;;;-143.39;100.00;64013.03;5379698;26;20329;-76
2024/04/10 08:29:02;;;;;;;33.20;30.80;;;;;;;-143.39;100.00;64013.03;5382544;26;20004;-76
2024/04/10 08:31:31;;;;;;;33.33;30.85;;;;;;;-143.39;100.00;64013.03;5379649;26;20000;-76
2024/04/10 08:34:00;;;;;;;32.17;29.77;;;;;;;-143.39;100.00;64013.03;5381660;26;20335;-76
2024/04/10 08:36:27;;;;;;;33.65;31.25;;;;;;;-143.39;100.00;64013.03;5380191;26;20402;-76
2024/04/10 08:38:57;;;;;;;32.60;30.20;;;;;;;-143.39;100.00;64013.03;5382439;26;20026;-76
2024/04/10 08:41:23;;;;;;;47.15;44.10;;;;;;;-143.39;100.00;64013.03;5380226;26;20015;-76
2024/04/10 08:43:55;;;;;;;51.78;48.47;;;;;;;-143.39;100.00;64013.03;5382700;26;20459;-76
2024/04/10 08:46:26;;;;;;;53.45;50.05;;;;;;;-143.39;100.00;64013.03;5379965;26;20154;-76
2024/04/10 08:48:58;;;;;;;51.15;47.95;;;;;;;-143.39;100.00;64013.03;5382373;26;20090;-76
2024/04/10 08:51:26;;;;;;;63.42;59.70;;;;;;;-143.39;100.00;64013.03;5378958;26;20073;-76
2024/04/10 08:53:57;;;;;;;101.47;96.30;;;;;;;-143.39;100.00;64013.03;5376343;26;20051;-76
2024/04/10 08:56:23;;;;;;;89.88;85.18;;;;;;;-143.39;100.00;64013.03;5379370;26;20001;-76
2024/04/10 08:58:52;;;;;;;87.00;82.22;;;;;;;-143.39;100.00;64013.03;5383335;26;20459;-76
2024/04/10 09:01:25;;;;;;;71.93;67.75;;;;;;;-143.39;100.00;64013.03;5380824;26;20014;-83
2024/04/10 09:04:08;;;;;;;74.40;70.30;;;;;;;-143.39;100.00;64013.03;5383032;26;20004;-83
2024/04/10 09:06:40;;;;;;;;;;;;;;;-143.39;100.00;64013.03;5380589;26;20015;-82
2024/04/10 09:09:07;;;;;;;83.35;78.95;;;;;;;-143.39;100.00;64013.03;5380083;26;19925;-82
2024/04/10 09:11:37;;;;;;;64.68;61.05;;;;;;;-143.39;100.00;64013.03;5381899;26;20032;-83
2024/04/10 09:14:05;;;;;;;67.07;63.28;;;;;;;-143.39;100.00;64013.03;5380632;26;20004;-83
2024/04/10 09:16:34;;;;;;;63.75;60.25;;;;;;;-143.39;100.00;64013.03;5382800;26;20008;-76
2024/04/10 09:19:15;;;;;;;61.65;58.10;;;;;;;-143.39;100.00;64013.03;5378793;26;20918;-76
2024/04/10 09:21:58;;;;;;;35.83;33.22;;;;;;;-143.39;100.00;64013.03;5382549;26;20000;-82
2024/04/10 09:24:25;;;;;;;50.85;47.45;;;;;;;-143.39;100.00;64013.03;5380148;26;20339;-82
2024/04/10 09:26:54;;;;;;;50.65;47.35;;;;;;;-143.39;100.00;64013.03;5383144;26;20012;-82
2024/04/10 09:29:24;;;;;;;56.95;53.35;;;;;;;-143.39;100.00;64013.03;5379581;26;20016;-82
2024/04/10 09:31:54;;;;;;;146.07;139.07;;;;;;;-143.39;100.00;64013.03;5382300;26;20010;-82
2024/04/10 09:34:24;;;;;;;61.72;57.83;;;;;;;-143.39;100.00;64013.03;5379886;26;20014;-76
2024/04/10 09:36:54;;;;;;;54.10;50.60;;;;;;;-143.39;100.00;64013.03;5382007;26;20436;-76
2024/04/10 09:39:22;;;;;;;122.82;116.88;;;;;;;-143.39;100.00;64013.03;5379580;26;20018;-76
2024/04/10 09:41:58;;;;;;;53.67;50.28;;;;;;;-143.39;100.00;64013.03;5382071;26;20041;-76
2024/04/10 09:44:29;;;;;;;73.97;69.72;;;;;;;-143.39;100.00;64013.03;5379821;26;20004;-76
2024/04/10 09:47:04;;;;;;;56.35;52.75;;;;;;;-143.39;100.00;64013.03;5381930;26;20015;-76
2024/04/10 09:49:41;;;;;;;53.05;49.35;;;;;;;-143.39;100.00;64013.03;5379709;26;20020;-82
2024/04/10 09:52:11;;;;;;;52.92;49.33;;;;;;;-143.39;100.00;64013.03;5382831;26;20000;-83
2024/04/10 09:54:39;;;;;;;38.80;35.90;;;;;;;-143.39;100.00;64013.03;5374172;26;20019;-82
2024/04/10 09:57:10;;;;;;;40.20;37.30;;;;;;;-143.39;100.00;64013.03;5381543;26;20019;-82
2024/04/10 09:59:37;;;;;;;38.95;36.10;;;;;;;-143.39;100.00;64013.03;5379367;26;20339;-83
2024/04/10 10:02:10;;;;;;;104.93;99.32;;;;;;;-143.39;100.00;64013.03;5381189;26;20003;-82
2024/04/10 10:04:40;;;;;;;103.93;98.53;;;;;;;-143.39;100.00;64013.03;5379284;26;20004;-82
2024/04/10 10:07:10;;;;;;;89.38;83.85;;;;;;;-143.39;100.00;64013.03;5382053;26;20110;-82
2024/04/10 10:09:36;;;;;;;79.68;75.15;;;;;;;-143.39;100.00;64013.03;5379188;26;20324;-82
2024/04/10 10:12:05;;;;;;;88.57;83.68;;;;;;;-143.39;100.00;64013.03;5382025;26;20011;-82
2024/04/10 10:14:33;;;;;;;89.40;84.40;;;;;;;-143.39;100.00;64013.03;5380123;26;20066;-82
2024/04/10 10:17:12;;;;;;;88.05;83.15;;;;;;;-143.39;100.00;64013.03;5381691;26;20081;-75
2024/04/10 10:19:42;;;;;;;82.00;77.50;;;;;;;-143.39;100.00;64013.03;5379297;26;20010;-76
2024/04/10 10:22:18;;;;;;;81.53;77.05;;;;;;;-143.39;100.00;64013.03;5380894;26;20019;-76
2024/04/10 10:24:44;;;;;;;96.80;91.70;;;;;;;-143.39;100.00;64013.03;5378182;26;20004;-76
2024/04/10 10:27:25;;;;;;;104.40;99.00;;;;;;;-143.39;100.00;64013.03;5380834;26;20000;-76
2024/04/10 10:30:03;;;;;;;105.90;100.28;;;;;;;-143.39;100.00;64013.03;5377268;26;20000;-76
2024/04/10 10:32:32;;;;;;;95.85;90.75;;;;;;;-143.39;100.00;64013.03;5381898;26;20696;-76
2024/04/10 10:35:10;;;;;;;102.13;96.80;;;;;;;-143.39;100.00;64013.03;5374072;26;20004;-76
2024/04/10 10:37:42;;;;;;;98.75;93.65;;;;;;;-143.39;100.00;64013.03;5381180;26;20020;-82
2024/04/10 10:40:16;;;;;;;91.32;86.63;;;;;;;-143.39;100.00;64013.03;5379516;26;20467;-82
2024/04/10 10:42:46;;;;;;;94.03;88.95;;;;;;;-143.39;100.00;64013.03;5381496;26;20000;-82
2024/04/10 10:45:13;;;;;;;87.43;82.38;;;;;;;-143.39;100.00;64013.03;5379262;26;20004;-82
2024/04/10 10:47:44;;;;;;;96.40;90.55;;;;;;;-143.39;100.00;64013.03;5381303;26;20806;-82
2024/04/10 10:52:04;;;;;;;80.53;76.20;;;;;;;24.96;44.97;101284.94;5641931;25;20385;-83
2024/04/10 10:54:32;;;;;;;79.57;75.28;;;;;;;24.65;47.30;101287.97;5573404;25;20071;-83
2024/04/10 10:57:05;;;;;;;99.35;94.35;;;;;;;25.79;42.83;101275.47;5582929;25;20460;-83
2024/04/10 10:59:31;;;;;;;89.75;85.25;;;;;;;25.88;39.68;101264.78;5580068;25;20001;-83
2024/04/10 11:02:01;;;;;;;95.68;90.93;;;;;;;26.00;39.90;101273.28;5582312;25;20355;-83
2024/04/10 11:04:28;;;;;;;96.05;91.22;;;;;;;25.63;44.52;101265.91;5579869;25;20457;-83